Time;durP1;ratioP1;P1;durP2;ratioP2;P2;SDS_P1;SDS_P2;PMS_P1;PMS_P2;Temp;Humidity;BMP_temperature;BMP_pressure;BME280_temperature;BME280_humidity;BME280_pressure;Samples;Min_cycle;Max_cycle;Signal;HPM_P1;HPM_P2
2021/01/25 00:01:45;;;;;;;9.77;3.72;;;;;;;11.68;69.18;97549.31;4859102;29;20058;-77
2021/01/25 00:04:10;;;;;;;8.00;3.28;;;;;;;11.63;69.65;97562.88;4861407;29;20025;-77
2021/01/25 00:06:36;;;;;;;12.07;4.07;;;;;;;11.60;69.66;97526.84;4861392;29;20044;-77
2021/01/25 00:09:01;;;;;;;7.90;2.92;;;;;;;11.60;69.89;97532.19;4859081;29;20022;-78
2021/01/25 00:11:27;;;;;;;7.72;4.15;;;;;;;11.57;70.06;97510.63;4861059;29;20041;-77
2021/01/25 00:13:52;;;;;;;9.88;4.22;;;;;;;11.54;70.28;97522.75;4860836;29;20025;-77
2021/01/25 00:16:18;;;;;;;8.10;4.30;;;;;;;11.53;70.46;97505.91;4861418;29;20033;-77
2021/01/25 00:18:43;;;;;;;8.23;3.65;;;;;;;11.51;70.52;97497.41;4862415;29;20032;-78
2021/01/25 00:21:08;;;;;;;6.20;3.17;;;;;;;11.51;70.13;97510.00;4861033;29;20119;-77
2021/01/25 00:23:34;;;;;;;5.15;3.03;;;;;;;11.53;69.91;97483.69;4861043;29;20482;-76
2021/01/25 00:26:00;;;;;;;5.43;3.35;;;;;;;11.53;69.68;97487.19;4877240;29;20562;-77
2021/01/25 00:28:25;;;;;;;9.60;4.78;;;;;;;11.56;69.98;97495.66;4876800;29;20037;-76
2021/01/25 00:30:51;;;;;;;12.15;3.78;;;;;;;11.53;69.63;97484.50;4877331;29;20103;-77
2021/01/25 00:33:16;;;;;;;6.25;2.70;;;;;;;11.57;69.84;97505.25;4860979;29;20482;-78
2021/01/25 00:35:41;;;;;;;6.28;3.50;;;;;;;11.58;69.83;97494.22;4860700;29;20073;-78
2021/01/25 00:38:07;;;;;;;11.30;4.07;;;;;;;11.57;69.56;97518.66;4860708;29;20039;-78
2021/01/25 00:40:33;;;;;;;7.60;2.85;;;;;;;11.58;69.77;97510.28;4877609;29;20368;-85
2021/01/25 00:42:58;;;;;;;8.88;3.53;;;;;;;11.61;69.47;97503.50;4860367;29;20036;-88
2021/01/25 00:45:24;;;;;;;5.32;2.70;;;;;;;11.62;68.99;97487.16;4860389;29;20040;-85
2021/01/25 00:47:49;;;;;;;7.55;3.40;;;;;;;11.65;68.76;97485.72;4857128;29;20124;-86
2021/01/25 00:50:15;;;;;;;9.02;2.85;;;;;;;11.68;68.26;97487.72;4857724;29;20037;-87
2021/01/25 00:52:40;;;;;;;9.77;1.85;;;;;;;11.73;67.95;97490.25;4857624;29;20482;-86
2021/01/25 00:55:07;;;;;;;7.47;2.58;;;;;;;11.75;68.58;97503.31;4858893;29;20033;-85
2021/01/25 00:57:32;;;;;;;6.10;2.83;;;;;;;11.77;68.76;97501.88;4859714;29;20025;-83
2021/01/25 00:59:58;;;;;;;7.68;3.17;;;;;;;11.78;68.80;97475.88;4860027;29;20039;-85
2021/01/25 01:02:24;;;;;;;13.73;4.13;;;;;;;11.81;69.15;97483.28;4860695;29;20092;-83
2021/01/25 01:04:49;;;;;;;11.45;2.50;;;;;;;11.79;68.78;97466.75;4860393;29;20096;-82
2021/01/25 01:07:15;;;;;;;3.88;2.65;;;;;;;11.79;68.85;97480.94;4860596;29;20041;-82
2021/01/25 01:09:41;;;;;;;7.75;2.95;;;;;;;11.79;68.22;97485.50;4860128;29;20057;-81
2021/01/25 01:12:07;;;;;;;3.75;1.88;;;;;;;11.81;68.27;97470.66;4860060;29;20501;-82
2021/01/25 01:14:32;;;;;;;7.22;2.40;;;;;;;11.83;67.56;97467.69;4860105;29;20081;-79
2021/01/25 01:16:57;;;;;;;6.95;2.08;;;;;;;11.83;67.10;97456.97;4860287;29;20029;-81
2021/01/25 01:19:23;;;;;;;4.35;2.35;;;;;;;11.85;66.75;97465.44;4860338;29;20506;-79
2021/01/25 01:21:48;;;;;;;7.30;2.10;;;;;;;11.85;67.08;97452.84;4860117;29;20048;-78
2021/01/25 01:24:15;;;;;;;9.00;2.30;;;;;;;11.87;66.73;97444.50;4860432;29;20032;-77
2021/01/25 01:26:41;;;;;;;5.65;2.42;;;;;;;11.88;66.59;97446.06;4859680;29;20033;-77
2021/01/25 01:29:07;;;;;;;5.20;1.77;;;;;;;11.91;66.21;97431.22;4860166;29;20033;-77
2021/01/25 01:31:32;;;;;;;3.17;2.15;;;;;;;11.92;66.29;97433.59;4860446;29;20025;-77
2021/01/25 01:33:57;;;;;;;4.30;1.77;;;;;;;11.93;65.58;97429.03;4876793;29;20100;-85
2021/01/25 01:36:23;;;;;;;6.20;2.13;;;;;;;11.94;65.47;97409.94;4860400;29;20403;-78
2021/01/25 01:38:48;;;;;;;6.15;1.70;;;;;;;11.98;65.60;97408.19;4860185;29;20028;-79
2021/01/25 01:41:14;;;;;;;3.30;1.60;;;;;;;12.02;65.05;97397.63;4859594;29;20131;-78
2021/01/25 01:43:39;;;;;;;7.20;2.55;;;;;;;12.05;64.78;97388.16;4876303;29;20041;-77
2021/01/25 01:46:04;;;;;;;5.32;1.85;;;;;;;12.05;63.93;97374.75;4859757;29;20029;-87
2021/01/25 01:48:31;;;;;;;3.97;1.70;;;;;;;12.11;63.87;97368.09;4859733;29;20029;-81
2021/01/25 01:50:57;;;;;;;2.97;1.48;;;;;;;12.10;63.69;97372.66;4860100;29;20021;-80
2021/01/25 01:53:23;;;;;;;5.03;1.83;;;;;;;12.12;63.65;97380.38;4860201;29;20382;-79
2021/01/25 01:55:48;;;;;;;4.03;1.38;;;;;;;12.15;63.92;97379.72;4860252;29;20454;-78
2021/01/25 01:58:14;;;;;;;4.10;1.52;;;;;;;12.17;64.03;97375.59;4850172;29;20025;-79
2021/01/25 02:00:39;;;;;;;5.43;1.83;;;;;;;12.20;63.82;97368.81;4859991;29;20487;-79
2021/01/25 02:03:05;;;;;;;4.65;1.70;;;;;;;12.21;63.68;97375.75;4859660;29;20148;-78
2021/01/25 02:05:30;;;;;;;6.13;1.38;;;;;;;12.23;63.62;97368.16;4860073;29;20089;-77
2021/01/25 02:07:57;;;;;;;4.78;1.67;;;;;;;12.25;63.63;97370.50;4876541;29;20021;-77
2021/01/25 02:10:24;;;;;;;3.35;1.73;;;;;;;12.26;63.08;97362.13;4862086;29;20040;-77
2021/01/25 02:12:54;;;;;;;2.55;1.48;;;;;;;12.26;62.82;97354.09;4879531;29;20037;-78
2021/01/25 02:15:19;;;;;;;3.63;1.50;;;;;;;12.27;62.37;97352.22;4880369;29;20041;-82
2021/01/25 02:17:53;;;;;;;3.50;1.20;;;;;;;12.30;62.77;97346.19;4863063;29;20029;-79
2021/01/25 02:20:36;;;;;;;3.22;1.15;;;;;;;12.30;61.81;97338.13;4863253;29;20029;-77
2021/01/25 02:23:19;;;;;;;2.33;1.10;;;;;;;12.28;61.59;97329.63;4879834;29;20052;-77
2021/01/25 02:25:51;;;;;;;5.88;1.40;;;;;;;12.27;61.76;97334.22;4879306;29;20407;-78
2021/01/25 02:28:16;;;;;;;3.67;1.33;;;;;;;12.28;61.52;97325.06;4862894;29;20036;-82
2021/01/25 02:30:44;;;;;;;4.57;1.20;;;;;;;12.29;61.66;97323.16;4862989;29;20021;-80
2021/01/25 02:33:11;;;;;;;3.97;1.20;;;;;;;12.28;61.74;97309.00;4862806;29;20444;-77
2021/01/25 02:35:39;;;;;;;4.00;1.25;;;;;;;12.28;61.66;97310.88;4862992;29;20123;-78
2021/01/25 02:38:08;;;;;;;1.95;1.02;;;;;;;12.25;61.55;97314.22;4862665;29;20073;-77
2021/01/25 02:40:33;;;;;;;1.80;0.90;;;;;;;12.26;61.25;97308.53;4862239;29;20029;-77
2021/01/25 02:43:00;;;;;;;4.60;1.65;;;;;;;12.26;61.67;97321.16;4879159;29;20089;-76
2021/01/25 02:45:25;;;;;;;4.72;1.38;;;;;;;12.24;61.65;97297.38;4879857;29;20029;-81
2021/01/25 02:47:53;;;;;;;1.38;1.23;;;;;;;12.24;62.30;97304.63;4862685;29;20036;-79
2021/01/25 02:50:18;;;;;;;4.70;1.85;;;;;;;12.24;62.36;97307.28;4854474;29;20041;-77
2021/01/25 02:52:43;;;;;;;4.40;1.40;;;;;;;12.21;62.43;97295.34;4879368;29;20104;-77
2021/01/25 02:55:09;;;;;;;3.00;1.38;;;;;;;12.22;62.50;97298.78;4862163;29;20486;-77
2021/01/25 02:57:36;;;;;;;1.58;1.40;;;;;;;12.19;62.88;97289.50;4862604;29;20040;-77
2021/01/25 03:00:05;;;;;;;3.05;1.20;;;;;;;12.21;63.36;97284.63;4861441;29;20017;-76
2021/01/25 03:02:31;;;;;;;2.88;0.90;;;;;;;12.23;63.49;97308.41;4862259;29;20565;-77
2021/01/25 03:05:00;;;;;;;2.78;1.52;;;;;;;12.23;63.43;97305.72;4862287;29;20391;-76
2021/01/25 03:07:26;;;;;;;6.80;1.00;;;;;;;12.24;63.29;97312.66;4879473;29;20035;-77
2021/01/25 03:09:51;;;;;;;2.20;1.08;;;;;;;12.25;62.80;97295.47;4862312;29;20080;-77
2021/01/25 03:12:17;;;;;;;1.55;0.93;;;;;;;12.26;63.25;97313.88;4861174;29;20112;-77
2021/01/25 03:14:46;;;;;;;3.78;1.40;;;;;;;12.28;62.54;97316.22;4878463;29;20033;-77
2021/01/25 03:17:12;;;;;;;3.10;1.20;;;;;;;12.28;62.92;97298.28;4862054;29;20033;-79
2021/01/25 03:19:37;;;;;;;5.07;1.55;;;;;;;12.28;62.37;97284.88;4861040;29;20044;-80
2021/01/25 03:22:03;;;;;;;5.68;1.60;;;;;;;12.30;62.32;97292.56;4877667;29;20049;-79
2021/01/25 03:24:28;;;;;;;2.95;1.40;;;;;;;12.31;62.30;97289.56;4862017;29;20479;-79
2021/01/25 03:26:53;;;;;;;2.35;1.42;;;;;;;12.31;62.57;97244.00;4862029;29;20527;-80
2021/01/25 03:29:19;;;;;;;6.30;1.60;;;;;;;12.35;62.00;97260.19;4861728;29;20123;-82
2021/01/25 03:31:44;;;;;;;4.82;1.33;;;;;;;12.38;62.08;97264.09;4861390;29;20037;-82
2021/01/25 03:34:10;;;;;;;8.63;1.90;;;;;;;12.41;62.01;97252.72;4861624;29;20033;-81
2021/01/25 03:36:36;;;;;;;6.30;1.50;;;;;;;12.40;61.85;97246.59;4861734;29;20052;-77
2021/01/25 03:39:03;;;;;;;5.15;1.90;;;;;;;12.41;61.83;97237.41;4861601;29;20048;-76
2021/01/25 03:41:28;;;;;;;3.58;1.20;;;;;;;12.43;61.88;97224.47;4861871;29;20033;-77
2021/01/25 03:43:53;;;;;;;2.03;1.40;;;;;;;12.44;61.90;97226.03;4861736;29;20076;-78
2021/01/25 03:46:19;;;;;;;5.28;1.55;;;;;;;12.43;61.77;97216.44;4861513;29;20036;-79
2021/01/25 03:48:45;;;;;;;7.97;1.95;;;;;;;12.45;61.94;97205.38;4861111;29;20017;-84
2021/01/25 03:51:10;;;;;;;4.47;1.45;;;;;;;12.45;62.14;97214.22;4861093;29;20029;-82
2021/01/25 03:53:36;;;;;;;5.93;1.20;;;;;;;12.47;62.74;97209.31;4861317;29;20434;-78
2021/01/25 03:56:01;;;;;;;7.68;1.67;;;;;;;12.52;62.81;97221.69;4861400;29;20391;-82
2021/01/25 03:58:26;;;;;;;3.38;1.25;;;;;;;12.54;63.02;97219.47;4861216;29;20052;-79
2021/01/25 04:00:53;;;;;;;1.65;1.35;;;;;;;12.55;63.74;97214.88;4861487;29;20024;-78
2021/01/25 04:03:18;;;;;;;2.03;0.98;;;;;;;12.57;63.78;97240.25;4861279;29;20021;-77
2021/01/25 04:05:44;;;;;;;4.30;1.55;;;;;;;12.58;64.14;97249.06;4861447;29;20446;-76
2021/01/25 04:08:09;;;;;;;5.68;1.92;;;;;;;12.59;64.28;97251.41;4877515;29;20032;-81
2021/01/25 04:10:35;;;;;;;5.07;1.17;;;;;;;12.58;64.48;97254.44;4860979;29;20036;-78
2021/01/25 04:13:01;;;;;;;3.90;1.40;;;;;;;12.60;64.66;97261.03;4877517;29;20021;-81
2021/01/25 04:15:27;;;;;;;3.75;1.65;;;;;;;12.59;64.73;97264.81;4860700;29;20471;-82
2021/01/25 04:17:52;;;;;;;7.00;2.38;;;;;;;12.58;64.69;97252.53;4860835;29;20466;-83
2021/01/25 04:20:17;;;;;;;4.18;1.90;;;;;;;12.59;64.70;97262.16;4860955;29;20033;-83
2021/01/25 04:22:43;;;;;;;6.15;1.98;;;;;;;12.60;64.53;97268.31;4860741;29;20045;-83
2021/01/25 04:25:09;;;;;;;6.80;1.77;;;;;;;12.60;64.79;97265.63;4860870;29;20025;-85
2021/01/25 04:27:34;;;;;;;3.50;1.33;;;;;;;12.60;65.00;97258.34;4860516;29;20041;-82
2021/01/25 04:30:01;;;;;;;7.57;1.80;;;;;;;12.59;64.68;97235.34;4860277;29;20188;-82
2021/01/25 04:32:26;;;;;;;1.83;1.38;;;;;;;12.59;64.41;97221.16;4860629;29;20093;-79
2021/01/25 04:34:53;;;;;;;2.92;1.40;;;;;;;12.60;64.44;97247.63;4861018;29;20029;-78
2021/01/25 04:37:18;;;;;;;7.80;1.67;;;;;;;12.61;64.32;97226.97;4860246;29;20029;-86
2021/01/25 04:39:44;;;;;;;5.55;1.95;;;;;;;12.62;64.28;97225.84;4860636;29;20048;-86
2021/01/25 04:42:10;;;;;;;3.55;1.67;;;;;;;12.61;64.22;97225.06;4860599;29;20036;-87
2021/01/25 04:44:37;;;;;;;4.57;1.60;;;;;;;12.61;63.98;97221.63;4860797;29;20044;-78
2021/01/25 04:47:03;;;;;;;11.85;2.03;;;;;;;12.60;64.22;97231.53;4877358;29;20439;-79
2021/01/25 04:49:30;;;;;;;6.75;2.38;;;;;;;12.61;64.10;97229.66;4876771;29;20064;-80
2021/01/25 04:51:56;;;;;;;7.57;2.00;;;;;;;12.62;64.00;97231.19;4860770;29;20021;-86
2021/01/25 04:54:22;;;;;;;8.27;1.80;;;;;;;12.62;64.36;97248.09;4860275;29;20040;-84
2021/01/25 04:56:50;;;;;;;5.65;1.63;;;;;;;12.62;64.46;97229.31;4860690;29;20025;-86
2021/01/25 04:59:17;;;;;;;6.88;1.95;;;;;;;12.62;64.99;97236.56;4860381;29;20493;-80
2021/01/25 05:01:43;;;;;;;5.82;1.55;;;;;;;12.61;64.91;97243.06;4860293;29;20498;-78
2021/01/25 05:04:08;;;;;;;6.72;1.77;;;;;;;12.63;64.86;97251.53;4860213;29;20068;-78
2021/01/25 05:06:35;;;;;;;6.82;2.00;;;;;;;12.61;65.46;97251.09;4860256;29;20410;-80
2021/01/25 05:09:00;;;;;;;6.07;2.45;;;;;;;12.61;65.21;97251.09;4875475;29;20028;-79
2021/01/25 05:11:26;;;;;;;4.65;1.95;;;;;;;12.61;65.28;97257.25;4860110;29;20063;-81
2021/01/25 05:14:01;;;;;;;9.63;2.22;;;;;;;12.63;65.44;97254.22;4860173;29;20055;-84
2021/01/25 05:16:29;;;;;;;5.75;2.33;;;;;;;12.60;65.65;97261.03;4866695;29;20037;-88
2021/01/25 05:19:05;;;;;;;6.28;2.05;;;;;;;12.61;65.37;97249.19;4860351;29;20049;-84
2021/01/25 05:21:41;;;;;;;4.13;2.05;;;;;;;12.59;65.88;97250.66;4859200;29;20091;-85
2021/01/25 05:24:08;;;;;;;7.10;2.75;;;;;;;12.59;66.25;97248.75;4859936;29;20036;-88
2021/01/25 05:26:35;;;;;;;5.93;2.53;;;;;;;12.59;67.17;97251.41;4860428;29;20025;-85
2021/01/25 05:29:01;;;;;;;5.13;2.50;;;;;;;12.58;67.49;97251.75;4860343;29;20506;-88
2021/01/25 05:31:27;;;;;;;8.65;3.28;;;;;;;12.53;67.91;97239.34;4860245;29;20044;-79
2021/01/25 05:33:53;;;;;;;10.52;2.72;;;;;;;12.50;68.06;97242.72;4860097;29;20032;-85
2021/01/25 05:36:21;;;;;;;9.15;3.88;;;;;;;12.49;67.72;97233.88;4855514;29;20052;-80
2021/01/25 05:38:48;;;;;;;12.77;4.43;;;;;;;12.48;68.20;97240.34;4849668;29;20037;-84
2021/01/25 05:41:15;;;;;;;6.28;3.67;;;;;;;12.47;68.10;97243.34;4858214;29;20037;-82
2021/01/25 05:43:41;;;;;;;8.17;4.43;;;;;;;12.42;68.33;97233.63;4842508;29;20037;-82
2021/01/25 05:46:08;;;;;;;12.02;4.15;;;;;;;12.41;68.46;97242.78;4851263;29;20478;-77
2021/01/25 05:48:34;;;;;;;9.75;4.88;;;;;;;12.39;68.88;97239.66;4845713;29;20036;-77
2021/01/25 05:51:17;;;;;;;3.83;2.50;;;;;;;12.37;68.40;97228.47;4863397;29;20029;-76
2021/01/25 05:53:44;;;;;;;8.95;2.90;;;;;;;12.37;68.01;97225.81;4880158;29;20424;-76
2021/01/25 05:56:11;;;;;;;8.70;2.75;;;;;;;12.35;68.11;97232.63;4863452;29;20025;-77
2021/01/25 05:58:37;;;;;;;5.93;2.17;;;;;;;12.34;68.26;97237.22;4880535;29;20040;-76
2021/01/25 06:01:03;;;;;;;5.78;2.45;;;;;;;12.31;68.23;97233.25;4880287;29;20035;-77
2021/01/25 06:03:36;;;;;;;5.20;2.67;;;;;;;12.31;68.11;97227.91;4863450;29;20084;-76
2021/01/25 06:06:09;;;;;;;8.25;3.20;;;;;;;12.30;68.43;97225.56;4880456;29;20025;-77
2021/01/25 06:08:47;;;;;;;2.83;1.98;;;;;;;12.29;68.38;97205.22;4879928;29;20108;-76
2021/01/25 06:11:29;;;;;;;3.47;2.40;;;;;;;12.25;68.39;97218.50;4862822;29;20486;-77
2021/01/25 06:13:56;;;;;;;4.85;2.88;;;;;;;12.27;68.09;97218.19;4879597;29;20100;-78
2021/01/25 06:16:24;;;;;;;6.93;1.75;;;;;;;12.26;68.10;97212.03;4879449;29;20035;-77
2021/01/25 06:18:50;;;;;;;8.15;2.53;;;;;;;12.24;68.62;97221.53;4879397;29;20029;-77
2021/01/25 06:21:27;;;;;;;5.50;2.88;;;;;;;12.26;68.13;97220.09;4861944;29;20040;-77
2021/01/25 06:23:55;;;;;;;4.82;2.45;;;;;;;12.25;68.27;97223.09;4862565;29;20462;-78
2021/01/25 06:26:24;;;;;;;4.90;2.17;;;;;;;12.25;68.09;97237.28;4862206;29;20055;-77
2021/01/25 06:28:51;;;;;;;3.92;2.53;;;;;;;12.24;68.10;97243.78;4862347;29;20028;-77
2021/01/25 06:31:18;;;;;;;6.80;2.30;;;;;;;12.27;67.99;97251.13;4879299;29;20084;-77
2021/01/25 06:33:47;;;;;;;3.60;2.42;;;;;;;12.28;67.94;97255.38;4862272;29;20032;-76
2021/01/25 06:36:15;;;;;;;7.47;3.33;;;;;;;12.29;68.09;97256.16;4878887;29;20033;-79
2021/01/25 06:38:42;;;;;;;7.07;3.97;;;;;;;12.32;67.66;97252.81;4862090;29;20470;-79
2021/01/25 06:41:13;;;;;;;9.23;4.47;;;;;;;12.32;68.22;97250.91;4862021;29;20582;-79
2021/01/25 06:43:44;;;;;;;12.13;4.55;;;;;;;12.34;68.04;97242.56;4878962;29;20102;-79
2021/01/25 06:46:09;;;;;;;6.63;3.35;;;;;;;12.35;67.78;97244.09;4861937;29;20025;-79
2021/01/25 06:48:37;;;;;;;8.15;4.10;;;;;;;12.37;67.92;97235.75;4861884;29;20032;-78
2021/01/25 06:51:04;;;;;;;10.10;4.35;;;;;;;12.37;67.90;97225.03;4861772;29;20124;-79
2021/01/25 06:53:30;;;;;;;15.05;4.60;;;;;;;12.38;67.56;97229.25;4878550;29;20029;-80
2021/01/25 06:56:00;;;;;;;7.32;4.38;;;;;;;12.40;67.79;97235.88;4861560;29;20036;-77
2021/01/25 06:58:30;;;;;;;12.77;4.07;;;;;;;12.41;67.85;97233.97;4878106;29;20033;-77
2021/01/25 07:01:04;;;;;;;7.22;3.88;;;;;;;12.44;67.59;97230.63;4861900;29;20159;-77
2021/01/25 07:03:43;;;;;;;9.85;5.38;;;;;;;12.45;67.56;97235.66;4861601;29;20490;-78
2021/01/25 07:06:14;;;;;;;10.43;4.30;;;;;;;12.49;67.12;97227.72;4862285;29;20017;-79
2021/01/25 07:08:39;;;;;;;8.00;4.03;;;;;;;12.51;67.17;97225.47;4862196;29;20029;-79
2021/01/25 07:11:06;;;;;;;5.28;3.78;;;;;;;12.54;66.96;97235.56;4862321;29;20360;-78
2021/01/25 07:13:34;;;;;;;7.97;4.18;;;;;;;12.56;66.34;97236.00;4862140;29;20514;-78
2021/01/25 07:16:00;;;;;;;6.57;3.22;;;;;;;12.55;65.47;97225.59;4862284;29;20483;-77
2021/01/25 07:18:28;;;;;;;8.65;4.65;;;;;;;12.54;65.18;97208.75;4861959;29;20029;-78
2021/01/25 07:20:56;;;;;;;17.53;7.77;;;;;;;12.52;64.94;97200.25;4862202;29;20069;-78
2021/01/25 07:23:24;;;;;;;16.13;7.57;;;;;;;12.52;65.58;97191.44;4861774;29;20045;-78
2021/01/25 07:25:57;;;;;;;14.52;4.88;;;;;;;12.49;65.16;97171.44;4862103;29;20285;-78
2021/01/25 07:28:24;;;;;;;9.80;5.03;;;;;;;12.48;64.59;97145.72;4861674;29;20033;-78
2021/01/25 07:30:50;;;;;;;9.38;4.38;;;;;;;12.47;64.38;97134.25;4861733;29;20037;-79
2021/01/25 07:33:17;;;;;;;9.18;4.43;;;;;;;12.46;64.12;97135.34;4861743;29;20025;-78
2021/01/25 07:35:42;;;;;;;5.95;3.47;;;;;;;12.48;64.04;97161.81;4861949;29;20032;-78
2021/01/25 07:38:08;;;;;;;5.55;3.22;;;;;;;12.49;63.82;97164.16;4861869;29;20024;-78
2021/01/25 07:40:33;;;;;;;8.65;3.28;;;;;;;12.47;63.71;97181.69;4861446;29;20029;-78
2021/01/25 07:43:02;;;;;;;4.30;2.30;;;;;;;12.48;63.90;97183.25;4861728;29;20032;-79
2021/01/25 07:45:27;;;;;;;3.60;2.25;;;;;;;12.52;63.75;97178.03;4861474;29;20025;-78
2021/01/25 07:47:53;;;;;;;4.97;3.00;;;;;;;12.51;64.06;97168.41;4861601;29;20030;-78
2021/01/25 07:50:18;;;;;;;3.08;1.80;;;;;;;12.50;64.02;97170.31;4878246;29;20033;-78
2021/01/25 07:52:44;;;;;;;7.43;2.47;;;;;;;12.53;63.88;97179.59;4878556;29;20029;-78
2021/01/25 07:55:18;;;;;;;6.68;3.50;;;;;;;12.53;64.15;97180.34;4861521;29;20037;-78
2021/01/25 07:57:44;;;;;;;5.45;2.97;;;;;;;12.54;63.90;97176.56;4877816;29;20029;-78
2021/01/25 08:00:28;;;;;;;7.68;4.03;;;;;;;12.56;64.07;97171.66;4861230;29;20033;-78
2021/01/25 08:03:24;;;;;;;5.78;4.15;;;;;;;12.57;64.11;97164.38;4861390;29;20497;-78
2021/01/25 08:05:54;;;;;;;5.47;2.92;;;;;;;12.61;64.00;97165.28;4861348;29;20183;-78
2021/01/25 08:08:21;;;;;;;4.25;2.45;;;;;;;12.62;63.67;97159.59;4860592;29;20116;-78
2021/01/25 08:10:48;;;;;;;5.30;2.20;;;;;;;12.66;63.67;97170.44;4861343;29;20052;-78
2021/01/25 08:13:16;;;;;;;6.07;2.92;;;;;;;12.68;63.85;97170.84;4877707;29;20025;-79
2021/01/25 08:15:59;;;;;;;4.50;1.95;;;;;;;12.72;63.85;97161.03;4861101;29;20088;-78
2021/01/25 08:18:35;;;;;;;6.22;1.92;;;;;;;12.77;63.23;97181.50;4860836;29;20521;-79
2021/01/25 08:21:03;;;;;;;4.15;2.17;;;;;;;12.79;63.45;97182.72;4877476;29;20037;-79
2021/01/25 08:23:32;;;;;;;3.60;2.63;;;;;;;12.87;63.30;97181.03;4877762;29;20062;-78
2021/01/25 08:26:00;;;;;;;6.57;3.33;;;;;;;12.92;62.51;97190.75;4860972;29;20029;-78
2021/01/25 08:28:32;;;;;;;4.35;2.17;;;;;;;12.96;62.65;97186.28;4877382;29;20021;-79
2021/01/25 08:31:13;;;;;;;4.07;1.98;;;;;;;12.99;62.53;97193.66;4860568;29;20033;-79
2021/01/25 08:33:41;;;;;;;6.40;2.58;;;;;;;13.04;62.38;97211.44;4860969;29;20184;-78
2021/01/25 08:36:08;;;;;;;4.40;2.15;;;;;;;13.06;61.95;97209.19;4860921;29;20120;-78
2021/01/25 08:38:37;;;;;;;4.68;2.40;;;;;;;13.07;61.80;97200.81;4877132;29;20112;-78
2021/01/25 08:41:17;;;;;;;6.40;2.95;;;;;;;13.11;62.27;97215.09;4860853;29;20032;-78
2021/01/25 08:44:01;;;;;;;3.80;2.58;;;;;;;13.15;60.98;97228.63;4860871;29;20027;-78
2021/01/25 08:46:38;;;;;;;7.22;3.38;;;;;;;13.19;61.00;97228.75;4860646;29;20033;-78
2021/01/25 08:49:18;;;;;;;4.13;2.30;;;;;;;13.19;60.73;97231.44;4860625;29;20386;-79
2021/01/25 08:52:22;;;;;;;8.82;4.00;;;;;;;13.25;59.86;97238.91;4877606;29;20025;-79
2021/01/25 08:54:48;;;;;;;4.80;2.80;;;;;;;13.28;59.54;97240.13;4877424;29;20638;-79
2021/01/25 08:57:18;;;;;;;5.82;2.80;;;;;;;13.31;59.31;97227.94;4860536;29;20099;-79
2021/01/25 08:59:44;;;;;;;4.55;2.20;;;;;;;13.35;58.23;97234.19;4860467;29;20081;-79
2021/01/25 09:02:19;;;;;;;5.28;2.75;;;;;;;13.40;57.88;97242.84;4877306;29;20063;-79
2021/01/25 09:04:45;;;;;;;4.93;2.80;;;;;;;13.44;57.67;97246.41;4860651;29;20032;-79
2021/01/25 09:07:20;;;;;;;5.78;2.80;;;;;;;13.48;57.92;97254.56;4860477;29;20025;-79
2021/01/25 09:09:46;;;;;;;4.57;3.22;;;;;;;13.51;57.71;97264.63;4877124;29;20478;-79
2021/01/25 09:12:14;;;;;;;7.78;3.53;;;;;;;13.57;57.48;97263.28;4877481;29;20033;-79
2021/01/25 09:14:40;;;;;;;3.97;2.10;;;;;;;13.63;56.66;97273.78;4860516;29;20032;-78
2021/01/25 09:17:08;;;;;;;3.70;2.13;;;;;;;13.67;56.11;97269.28;4860460;29;20036;-79
2021/01/25 09:19:33;;;;;;;5.32;2.55;;;;;;;13.70;55.83;97263.25;4878574;29;20048;-79
2021/01/25 09:21:59;;;;;;;4.82;2.88;;;;;;;13.75;55.42;97263.78;4863932;29;20041;-79
2021/01/25 09:24:24;;;;;;;3.88;2.97;;;;;;;13.79;55.49;97280.00;4864043;29;20021;-79
2021/01/25 09:26:50;;;;;;;2.50;1.90;;;;;;;13.84;55.50;97270.91;4864076;29;20025;-79
2021/01/25 09:29:15;;;;;;;6.80;3.97;;;;;;;13.88;55.21;97279.88;4880636;29;20025;-79
2021/01/25 09:31:41;;;;;;;5.35;2.75;;;;;;;13.92;55.43;97281.53;4864019;29;20077;-79
2021/01/25 09:34:06;;;;;;;4.07;2.75;;;;;;;13.93;55.43;97275.03;4864027;29;20029;-79
2021/01/25 09:36:32;;;;;;;3.13;1.52;;;;;;;13.99;54.62;97270.22;4880591;29;20108;-79
2021/01/25 09:38:58;;;;;;;5.22;1.98;;;;;;;14.06;54.87;97289.22;4863991;29;20072;-78
2021/01/25 09:41:23;;;;;;;2.72;1.55;;;;;;;14.12;54.81;97284.34;4863691;29;20462;-78
2021/01/25 09:43:49;;;;;;;2.50;1.27;;;;;;;14.16;53.92;97284.47;4863837;29;20430;-78
2021/01/25 09:46:14;;;;;;;1.60;1.20;;;;;;;14.18;53.78;97280.31;4863777;29;20025;-78
2021/01/25 09:48:40;;;;;;;4.65;1.83;;;;;;;14.24;53.36;97276.28;4880619;29;20036;-78
2021/01/25 09:51:06;;;;;;;3.17;1.88;;;;;;;14.27;53.50;97274.78;4863483;29;20505;-78
2021/01/25 09:53:31;;;;;;;2.55;1.58;;;;;;;14.32;53.35;97279.13;4863425;29;20068;-78
2021/01/25 09:55:57;;;;;;;3.38;1.35;;;;;;;14.35;53.63;97279.22;4863397;29;20089;-78
2021/01/25 09:58:23;;;;;;;2.88;1.55;;;;;;;14.41;53.19;97272.50;4863317;29;20112;-78
2021/01/25 10:00:50;;;;;;;4.18;2.20;;;;;;;14.46;53.02;97267.97;4863534;29;20466;-78
2021/01/25 10:03:16;;;;;;;6.43;3.80;;;;;;;14.52;53.29;97283.50;4863507;29;20028;-78
2021/01/25 10:05:42;;;;;;;4.35;2.85;;;;;;;14.59;53.56;97280.22;4863539;29;20080;-78
2021/01/25 10:08:08;;;;;;;4.50;2.08;;;;;;;14.64;53.02;97276.50;4863307;29;20021;-78
2021/01/25 10:10:33;;;;;;;4.32;2.40;;;;;;;14.71;52.74;97279.41;4879917;29;20027;-78
2021/01/25 10:12:59;;;;;;;5.53;2.72;;;;;;;14.79;52.54;97289.19;4880333;29;20116;-79
2021/01/25 10:15:24;;;;;;;3.58;2.35;;;;;;;14.82;52.36;97291.19;4880015;29;20033;-79
2021/01/25 10:17:50;;;;;;;2.92;2.30;;;;;;;14.88;52.34;97291.72;4879862;29;20383;-78
2021/01/25 10:20:16;;;;;;;3.15;1.88;;;;;;;14.89;51.24;97291.38;4863130;29;20055;-79
2021/01/25 10:22:41;;;;;;;3.97;2.60;;;;;;;14.93;50.43;97294.16;4862672;29;20041;-79
2021/01/25 10:25:08;;;;;;;9.07;3.58;;;;;;;14.95;49.49;97308.06;4863018;29;20047;-79
2021/01/25 10:27:35;;;;;;;7.43;3.90;;;;;;;14.93;50.18;97299.53;4879324;29;20032;-79
2021/01/25 10:30:00;;;;;;;2.08;1.70;;;;;;;14.97;49.28;97311.16;4862451;29;20036;-79
2021/01/25 10:32:26;;;;;;;1.52;1.27;;;;;;;14.94;48.58;97311.88;4862801;29;20021;-79
2021/01/25 10:34:51;;;;;;;2.35;1.77;;;;;;;14.91;49.53;97309.09;4862887;29;20467;-78
2021/01/25 10:37:17;;;;;;;2.35;1.80;;;;;;;14.84;48.45;97318.56;4879548;29;20119;-78
2021/01/25 10:39:42;;;;;;;2.35;0.95;;;;;;;14.80;48.79;97323.03;4862565;29;20039;-78
2021/01/25 10:42:08;;;;;;;0.77;0.73;;;;;;;14.77;48.59;97334.53;4862847;29;20021;-78
2021/01/25 10:44:34;;;;;;;2.75;0.95;;;;;;;14.73;48.69;97339.00;4879536;29;20040;-78
2021/01/25 10:46:59;;;;;;;1.83;1.02;;;;;;;14.67;49.04;97338.50;4862504;29;20080;-78
2021/01/25 10:49:25;;;;;;;5.95;1.25;;;;;;;14.64;48.87;97349.13;4862236;29;20466;-78
2021/01/25 10:51:50;;;;;;;2.08;0.93;;;;;;;14.58;48.75;97348.59;4862531;29;20494;-78
2021/01/25 10:54:22;;;;;;;2.70;1.23;;;;;;;14.49;48.66;97362.19;4862440;29;20111;-78
2021/01/25 10:56:47;;;;;;;2.85;1.05;;;;;;;14.38;47.97;97361.91;4862468;29;20390;-78
2021/01/25 10:59:13;;;;;;;1.88;1.27;;;;;;;14.30;48.81;97346.69;4862376;29;20032;-78
2021/01/25 11:01:38;;;;;;;3.08;1.25;;;;;;;14.15;47.28;97353.59;4879419;29;20538;-78
2021/01/25 11:04:04;;;;;;;3.90;1.80;;;;;;;14.07;48.98;97382.19;4862443;29;20029;-77
2021/01/25 11:06:29;;;;;;;0.93;0.93;;;;;;;13.94;48.49;97377.94;4862234;29;20033;-77
2021/01/25 11:08:54;;;;;;;0.85;0.77;;;;;;;13.84;49.03;97389.94;4862295;29;20025;-77
2021/01/25 11:11:20;;;;;;;2.58;1.17;;;;;;;13.67;50.05;97395.53;4862070;29;20029;-77
2021/01/25 11:13:45;;;;;;;2.15;1.33;;;;;;;13.53;49.66;97431.56;4879071;29;20040;-77
2021/01/25 11:16:11;;;;;;;1.38;1.10;;;;;;;13.35;53.09;97463.19;4862312;29;20089;-77
2021/01/25 11:18:36;;;;;;;4.97;1.20;;;;;;;12.97;54.79;97497.22;4861900;29;20032;-77
2021/01/25 11:21:02;;;;;;;1.77;1.67;;;;;;;12.56;55.09;97474.66;4862046;29;20029;-78
2021/01/25 11:23:27;;;;;;;1.77;1.15;;;;;;;12.20;56.31;97405.56;4861890;29;20653;-79
2021/01/25 11:25:54;;;;;;;0.82;0.75;;;;;;;11.87;56.75;97369.50;4862053;29;20029;-79
2021/01/25 11:28:20;;;;;;;1.10;0.75;;;;;;;11.64;57.88;97435.94;4878615;29;20025;-79
2021/01/25 11:30:46;;;;;;;0.80;0.80;;;;;;;11.44;58.46;97450.84;4862030;29;20112;-80
2021/01/25 11:33:11;;;;;;;0.90;0.90;;;;;;;11.27;58.74;97457.81;4861884;29;20072;-81
2021/01/25 11:35:37;;;;;;;1.75;0.80;;;;;;;11.15;58.03;97463.03;4861847;29;20530;-78